sensor_id;sensor_type;location;lat;lon;timestamp;P1;durP1;ratioP1;P2;durP2;ratioP2
17790;SDS011;9019;48.132;-1.210;2023-05-10T00:01:30;9.37;;;2.00;;
17790;SDS011;9019;48.132;-1.210;2023-05-10T00:03:57;10.13;;;1.90;;
17790;SDS011;9019;48.132;-1.210;2023-05-10T00:06:24;10.87;;;1.70;;
17790;SDS011;9019;48.132;-1.210;2023-05-10T00:08:52;12.33;;;2.40;;
17790;SDS011;9019;48.132;-1.210;2023-05-10T00:11:20;9.83;;;2.33;;
17790;SDS011;9019;48.132;-1.210;2023-05-10T00:13:49;11.40;;;1.70;;
17790;SDS011;9019;48.132;-1.210;2023-05-10T00:16:16;11.20;;;2.17;;
17790;SDS011;9019;48.132;-1.210;2023-05-10T00:18:43;14.67;;;2.53;;
17790;SDS011;9019;48.132;-1.210;2023-05-10T00:21:11;11.87;;;1.87;;
17790;SDS011;9019;48.132;-1.210;2023-05-10T00:23:38;10.63;;;2.33;;
17790;SDS011;9019;48.132;-1.210;2023-05-10T00:26:05;12.80;;;2.60;;
17790;SDS011;9019;48.132;-1.210;2023-05-10T00:28:33;13.13;;;2.33;;
17790;SDS011;9019;48.132;-1.210;2023-05-10T00:31:01;8.63;;;2.00;;
17790;SDS011;9019;48.132;-1.210;2023-05-10T00:33:29;10.03;;;2.10;;
17790;SDS011;9019;48.132;-1.210;2023-05-10T00:35:56;14.70;;;3.73;;
17790;SDS011;9019;48.132;-1.210;2023-05-10T00:38:23;11.17;;;2.10;;
17790;SDS011;9019;48.132;-1.210;2023-05-10T00:40:50;11.10;;;2.20;;
17790;SDS011;9019;48.132;-1.210;2023-05-10T00:43:17;14.67;;;2.43;;
17790;SDS011;9019;48.132;-1.210;2023-05-10T00:45:45;9.63;;;2.10;;
17790;SDS011;9019;48.132;-1.210;2023-05-10T00:48:13;14.50;;;2.60;;
17790;SDS011;9019;48.132;-1.210;2023-05-10T00:50:41;13.70;;;2.27;;
17790;SDS011;9019;48.132;-1.210;2023-05-10T00:53:08;12.83;;;2.20;;
17790;SDS011;9019;48.132;-1.210;2023-05-10T00:55:36;13.57;;;2.50;;
17790;SDS011;9019;48.132;-1.210;2023-05-10T00:58:04;11.83;;;2.13;;
17790;SDS011;9019;48.132;-1.210;2023-05-10T01:00:32;11.97;;;2.47;;
17790;SDS011;9019;48.132;-1.210;2023-05-10T01:03:00;10.23;;;1.97;;
17790;SDS011;9019;48.132;-1.210;2023-05-10T01:05:29;13.87;;;2.37;;
17790;SDS011;9019;48.132;-1.210;2023-05-10T01:07:56;13.40;;;2.23;;
17790;SDS011;9019;48.132;-1.210;2023-05-10T01:10:24;12.63;;;2.27;;
17790;SDS011;9019;48.132;-1.210;2023-05-10T01:12:51;13.47;;;2.30;;
17790;SDS011;9019;48.132;-1.210;2023-05-10T01:15:19;15.87;;;2.47;;
17790;SDS011;9019;48.132;-1.210;2023-05-10T01:17:47;12.97;;;2.60;;
17790;SDS011;9019;48.132;-1.210;2023-05-10T01:20:15;17.23;;;2.40;;
17790;SDS011;9019;48.132;-1.210;2023-05-10T01:22:50;14.90;;;2.77;;
17790;SDS011;9019;48.132;-1.210;2023-05-10T01:25:27;11.67;;;2.10;;
17790;SDS011;9019;48.132;-1.210;2023-05-10T01:28:13;11.33;;;2.20;;
17790;SDS011;9019;48.132;-1.210;2023-05-10T01:33:30;13.37;;;2.40;;
17790;SDS011;9019;48.132;-1.210;2023-05-10T01:36:03;11.97;;;2.00;;
17790;SDS011;9019;48.132;-1.210;2023-05-10T01:38:33;13.30;;;2.47;;
17790;SDS011;9019;48.132;-1.210;2023-05-10T01:41:08;12.17;;;2.20;;
17790;SDS011;9019;48.132;-1.210;2023-05-10T01:43:42;15.80;;;2.47;;
17790;SDS011;9019;48.132;-1.210;2023-05-10T01:46:12;16.77;;;2.40;;
17790;SDS011;9019;48.132;-1.210;2023-05-10T01:48:46;11.47;;;2.20;;
17790;SDS011;9019;48.132;-1.210;2023-05-10T01:51:14;9.40;;;2.03;;
17790;SDS011;9019;48.132;-1.210;2023-05-10T01:53:44;10.80;;;2.20;;
17790;SDS011;9019;48.132;-1.210;2023-05-10T01:56:12;10.63;;;2.17;;
17790;SDS011;9019;48.132;-1.210;2023-05-10T01:58:39;14.03;;;2.60;;
17790;SDS011;9019;48.132;-1.210;2023-05-10T02:01:07;10.73;;;2.40;;
17790;SDS011;9019;48.132;-1.210;2023-05-10T02:03:35;18.33;;;2.90;;
17790;SDS011;9019;48.132;-1.210;2023-05-10T02:06:05;14.13;;;2.47;;
17790;SDS011;9019;48.132;-1.210;2023-05-10T02:08:33;14.37;;;2.27;;
17790;SDS011;9019;48.132;-1.210;2023-05-10T02:11:02;11.90;;;2.60;;
17790;SDS011;9019;48.132;-1.210;2023-05-10T02:13:30;11.37;;;2.10;;
17790;SDS011;9019;48.132;-1.210;2023-05-10T02:15:59;15.07;;;2.63;;
17790;SDS011;9019;48.132;-1.210;2023-05-10T02:18:28;12.53;;;2.70;;
17790;SDS011;9019;48.132;-1.210;2023-05-10T02:20:56;14.03;;;2.27;;
17790;SDS011;9019;48.132;-1.210;2023-05-10T02:23:26;16.13;;;2.90;;
17790;SDS011;9019;48.132;-1.210;2023-05-10T02:25:55;15.83;;;2.70;;
17790;SDS011;9019;48.132;-1.210;2023-05-10T02:28:23;16.53;;;2.80;;
17790;SDS011;9019;48.132;-1.210;2023-05-10T02:30:51;15.30;;;2.97;;
17790;SDS011;9019;48.132;-1.210;2023-05-10T02:33:19;14.63;;;2.60;;
17790;SDS011;9019;48.132;-1.210;2023-05-10T02:35:48;12.40;;;2.47;;
17790;SDS011;9019;48.132;-1.210;2023-05-10T02:38:17;15.27;;;2.77;;
17790;SDS011;9019;48.132;-1.210;2023-05-10T02:40:46;20.67;;;2.70;;
17790;SDS011;9019;48.132;-1.210;2023-05-10T02:43:15;13.67;;;2.70;;
17790;SDS011;9019;48.132;-1.210;2023-05-10T02:45:42;17.17;;;2.80;;
17790;SDS011;9019;48.132;-1.210;2023-05-10T02:48:10;11.93;;;2.50;;
17790;SDS011;9019;48.132;-1.210;2023-05-10T02:50:37;14.00;;;2.83;;
17790;SDS011;9019;48.132;-1.210;2023-05-10T02:53:09;13.33;;;2.90;;
17790;SDS011;9019;48.132;-1.210;2023-05-10T02:55:38;16.17;;;3.03;;
17790;SDS011;9019;48.132;-1.210;2023-05-10T02:58:07;13.67;;;2.80;;
17790;SDS011;9019;48.132;-1.210;2023-05-10T03:00:34;14.40;;;2.47;;
17790;SDS011;9019;48.132;-1.210;2023-05-10T03:03:01;16.07;;;3.27;;
17790;SDS011;9019;48.132;-1.210;2023-05-10T03:05:28;14.53;;;2.90;;
17790;SDS011;9019;48.132;-1.210;2023-05-10T03:07:56;12.70;;;2.60;;
17790;SDS011;9019;48.132;-1.210;2023-05-10T03:10:25;13.80;;;2.83;;
17790;SDS011;9019;48.132;-1.210;2023-05-10T03:12:57;15.90;;;2.40;;
17790;SDS011;9019;48.132;-1.210;2023-05-10T03:15:31;21.93;;;3.30;;
17790;SDS011;9019;48.132;-1.210;2023-05-10T03:18:01;16.37;;;3.07;;
17790;SDS011;9019;48.132;-1.210;2023-05-10T03:20:33;15.00;;;2.90;;
17790;SDS011;9019;48.132;-1.210;2023-05-10T03:23:02;19.87;;;4.10;;
17790;SDS011;9019;48.132;-1.210;2023-05-10T03:25:31;23.60;;;3.10;;
17790;SDS011;9019;48.132;-1.210;2023-05-10T03:27:58;14.20;;;3.30;;
17790;SDS011;9019;48.132;-1.210;2023-05-10T03:30:27;18.93;;;3.40;;
17790;SDS011;9019;48.132;-1.210;2023-05-10T03:32:56;15.43;;;3.13;;
17790;SDS011;9019;48.132;-1.210;2023-05-10T03:35:23;19.23;;;3.00;;
17790;SDS011;9019;48.132;-1.210;2023-05-10T03:37:50;19.37;;;3.23;;
17790;SDS011;9019;48.132;-1.210;2023-05-10T03:40:17;11.40;;;2.67;;
17790;SDS011;9019;48.132;-1.210;2023-05-10T03:42:45;12.73;;;3.07;;
17790;SDS011;9019;48.132;-1.210;2023-05-10T03:45:12;16.50;;;3.10;;
17790;SDS011;9019;48.132;-1.210;2023-05-10T03:47:42;15.27;;;3.50;;
17790;SDS011;9019;48.132;-1.210;2023-05-10T03:50:10;18.63;;;3.10;;
17790;SDS011;9019;48.132;-1.210;2023-05-10T03:52:37;17.57;;;3.17;;
17790;SDS011;9019;48.132;-1.210;2023-05-10T03:55:05;17.30;;;3.53;;
17790;SDS011;9019;48.132;-1.210;2023-05-10T03:57:32;20.50;;;3.60;;
17790;SDS011;9019;48.132;-1.210;2023-05-10T04:00:00;22.30;;;3.37;;
17790;SDS011;9019;48.132;-1.210;2023-05-10T04:02:27;18.07;;;3.20;;
17790;SDS011;9019;48.132;-1.210;2023-05-10T04:04:55;16.70;;;3.17;;
17790;SDS011;9019;48.132;-1.210;2023-05-10T04:07:24;20.40;;;3.10;;
17790;SDS011;9019;48.132;-1.210;2023-05-10T04:09:51;15.93;;;3.20;;
17790;SDS011;9019;48.132;-1.210;2023-05-10T04:12:18;15.27;;;3.30;;
17790;SDS011;9019;48.132;-1.210;2023-05-10T04:14:45;10.50;;;3.00;;
17790;SDS011;9019;48.132;-1.210;2023-05-10T04:17:12;17.93;;;3.80;;
17790;SDS011;9019;48.132;-1.210;2023-05-10T04:19:39;16.97;;;3.00;;
17790;SDS011;9019;48.132;-1.210;2023-05-10T04:22:07;21.67;;;3.50;;
17790;SDS011;9019;48.132;-1.210;2023-05-10T04:24:35;12.03;;;2.70;;
17790;SDS011;9019;48.132;-1.210;2023-05-10T04:27:03;14.97;;;3.07;;
17790;SDS011;9019;48.132;-1.210;2023-05-10T04:29:30;12.80;;;3.03;;
17790;SDS011;9019;48.132;-1.210;2023-05-10T04:31:58;19.87;;;3.60;;
17790;SDS011;9019;48.132;-1.210;2023-05-10T04:34:25;19.27;;;3.43;;
17790;SDS011;9019;48.132;-1.210;2023-05-10T04:36:52;17.43;;;2.93;;
17790;SDS011;9019;48.132;-1.210;2023-05-10T04:39:20;16.70;;;3.87;;
17790;SDS011;9019;48.132;-1.210;2023-05-10T04:41:48;19.07;;;3.43;;
17790;SDS011;9019;48.132;-1.210;2023-05-10T04:44:16;14.97;;;3.50;;
17790;SDS011;9019;48.132;-1.210;2023-05-10T04:46:43;20.00;;;3.43;;
17790;SDS011;9019;48.132;-1.210;2023-05-10T04:49:11;18.33;;;3.40;;
17790;SDS011;9019;48.132;-1.210;2023-05-10T04:51:39;22.40;;;3.53;;
17790;SDS011;9019;48.132;-1.210;2023-05-10T04:54:06;18.90;;;3.43;;
17790;SDS011;9019;48.132;-1.210;2023-05-10T04:56:34;17.13;;;3.97;;
17790;SDS011;9019;48.132;-1.210;2023-05-10T04:59:02;15.47;;;3.43;;
17790;SDS011;9019;48.132;-1.210;2023-05-10T05:01:29;15.93;;;2.90;;
17790;SDS011;9019;48.132;-1.210;2023-05-10T05:03:57;18.53;;;3.40;;
17790;SDS011;9019;48.132;-1.210;2023-05-10T05:06:24;21.80;;;3.47;;
17790;SDS011;9019;48.132;-1.210;2023-05-10T05:08:52;14.57;;;2.80;;
17790;SDS011;9019;48.132;-1.210;2023-05-10T05:11:19;19.00;;;3.87;;
17790;SDS011;9019;48.132;-1.210;2023-05-10T05:13:47;15.90;;;3.40;;
17790;SDS011;9019;48.132;-1.210;2023-05-10T05:16:16;14.90;;;2.80;;
17790;SDS011;9019;48.132;-1.210;2023-05-10T05:18:43;17.00;;;3.37;;
17790;SDS011;9019;48.132;-1.210;2023-05-10T05:21:14;12.33;;;3.00;;
17790;SDS011;9019;48.132;-1.210;2023-05-10T05:23:42;14.27;;;2.93;;
17790;SDS011;9019;48.132;-1.210;2023-05-10T05:26:09;13.50;;;3.27;;
17790;SDS011;9019;48.132;-1.210;2023-05-10T05:28:37;13.67;;;2.70;;
17790;SDS011;9019;48.132;-1.210;2023-05-10T05:31:04;17.90;;;3.10;;
17790;SDS011;9019;48.132;-1.210;2023-05-10T05:33:34;16.83;;;3.17;;
17790;SDS011;9019;48.132;-1.210;2023-05-10T05:36:01;17.53;;;2.97;;
17790;SDS011;9019;48.132;-1.210;2023-05-10T05:38:29;15.20;;;3.13;;
17790;SDS011;9019;48.132;-1.210;2023-05-10T05:40:56;19.83;;;3.27;;
17790;SDS011;9019;48.132;-1.210;2023-05-10T05:43:24;12.10;;;3.00;;
17790;SDS011;9019;48.132;-1.210;2023-05-10T05:45:51;13.13;;;2.63;;
17790;SDS011;9019;48.132;-1.210;2023-05-10T05:48:19;15.17;;;3.20;;
17790;SDS011;9019;48.132;-1.210;2023-05-10T05:50:49;15.67;;;2.73;;
17790;SDS011;9019;48.132;-1.210;2023-05-10T05:53:16;22.80;;;4.10;;
17790;SDS011;9019;48.132;-1.210;2023-05-10T05:55:50;16.67;;;3.40;;
17790;SDS011;9019;48.132;-1.210;2023-05-10T05:58:18;13.07;;;3.10;;
17790;SDS011;9019;48.132;-1.210;2023-05-10T06:00:46;11.87;;;2.60;;
17790;SDS011;9019;48.132;-1.210;2023-05-10T06:03:13;14.87;;;3.30;;
17790;SDS011;9019;48.132;-1.210;2023-05-10T06:05:41;13.97;;;2.70;;
17790;SDS011;9019;48.132;-1.210;2023-05-10T06:08:09;14.77;;;3.30;;
17790;SDS011;9019;48.132;-1.210;2023-05-10T06:10:37;17.03;;;3.30;;
17790;SDS011;9019;48.132;-1.210;2023-05-10T06:13:04;18.73;;;3.20;;
17790;SDS011;9019;48.132;-1.210;2023-05-10T06:15:32;11.87;;;3.13;;
17790;SDS011;9019;48.132;-1.210;2023-05-10T06:17:59;17.63;;;3.53;;
17790;SDS011;9019;48.132;-1.210;2023-05-10T06:20:27;15.97;;;3.63;;
17790;SDS011;9019;48.132;-1.210;2023-05-10T06:22:56;18.27;;;3.13;;
17790;SDS011;9019;48.132;-1.210;2023-05-10T06:25:25;15.10;;;3.23;;
17790;SDS011;9019;48.132;-1.210;2023-05-10T06:27:52;17.77;;;2.90;;
17790;SDS011;9019;48.132;-1.210;2023-05-10T06:30:23;16.70;;;3.17;;
17790;SDS011;9019;48.132;-1.210;2023-05-10T06:32:53;16.73;;;3.10;;
17790;SDS011;9019;48.132;-1.210;2023-05-10T06:35:21;20.97;;;3.40;;
17790;SDS011;9019;48.132;-1.210;2023-05-10T06:37:48;16.60;;;3.57;;
17790;SDS011;9019;48.132;-1.210;2023-05-10T06:40:16;17.37;;;3.23;;
17790;SDS011;9019;48.132;-1.210;2023-05-10T06:42:45;17.17;;;3.30;;
17790;SDS011;9019;48.132;-1.210;2023-05-10T06:45:12;17.70;;;3.73;;
17790;SDS011;9019;48.132;-1.210;2023-05-10T06:47:40;18.63;;;3.60;;
17790;SDS011;9019;48.132;-1.210;2023-05-10T06:50:08;13.50;;;3.50;;
17790;SDS011;9019;48.132;-1.210;2023-05-10T06:52:36;17.23;;;3.20;;
17790;SDS011;9019;48.132;-1.210;2023-05-10T06:55:03;14.17;;;2.77;;
17790;SDS011;9019;48.132;-1.210;2023-05-10T06:57:31;17.23;;;3.43;;
17790;SDS011;9019;48.132;-1.210;2023-05-10T07:00:00;16.40;;;3.43;;
17790;SDS011;9019;48.132;-1.210;2023-05-10T07:02:29;18.00;;;3.50;;
17790;SDS011;9019;48.132;-1.210;2023-05-10T07:04:56;16.20;;;3.20;;
17790;SDS011;9019;48.132;-1.210;2023-05-10T07:07:23;16.77;;;3.27;;
17790;SDS011;9019;48.132;-1.210;2023-05-10T07:09:50;15.37;;;3.30;;
17790;SDS011;9019;48.132;-1.210;2023-05-10T07:12:18;15.03;;;3.30;;
17790;SDS011;9019;48.132;-1.210;2023-05-10T07:14:45;17.07;;;3.33;;
17790;SDS011;9019;48.132;-1.210;2023-05-10T07:17:14;13.93;;;3.30;;
17790;SDS011;9019;48.132;-1.210;2023-05-10T07:19:42;15.63;;;3.30;;
17790;SDS011;9019;48.132;-1.210;2023-05-10T07:22:09;20.33;;;3.63;;
17790;SDS011;9019;48.132;-1.210;2023-05-10T07:24:37;18.67;;;3.40;;
17790;SDS011;9019;48.132;-1.210;2023-05-10T07:27:05;12.90;;;3.07;;
17790;SDS011;9019;48.132;-1.210;2023-05-10T07:29:33;14.50;;;3.27;;
17790;SDS011;9019;48.132;-1.210;2023-05-10T07:32:00;16.90;;;3.67;;
17790;SDS011;9019;48.132;-1.210;2023-05-10T07:34:29;11.23;;;3.03;;
17790;SDS011;9019;48.132;-1.210;2023-05-10T07:36:57;13.00;;;2.60;;
17790;SDS011;9019;48.132;-1.210;2023-05-10T07:39:25;13.70;;;3.03;;
17790;SDS011;9019;48.132;-1.210;2023-05-10T07:41:52;10.63;;;2.53;;
17790;SDS011;9019;48.132;-1.210;2023-05-10T07:44:20;12.73;;;3.10;;
17790;SDS011;9019;48.132;-1.210;2023-05-10T07:46:50;12.60;;;2.60;;
17790;SDS011;9019;48.132;-1.210;2023-05-10T07:49:17;11.90;;;3.33;;
17790;SDS011;9019;48.132;-1.210;2023-05-10T07:51:46;14.47;;;3.00;;
17790;SDS011;9019;48.132;-1.210;2023-05-10T07:54:13;14.77;;;2.87;;
17790;SDS011;9019;48.132;-1.210;2023-05-10T07:56:41;13.60;;;3.20;;
17790;SDS011;9019;48.132;-1.210;2023-05-10T07:59:14;12.10;;;2.90;;
17790;SDS011;9019;48.132;-1.210;2023-05-10T08:01:41;12.40;;;2.80;;
17790;SDS011;9019;48.132;-1.210;2023-05-10T08:04:09;9.40;;;2.40;;
17790;SDS011;9019;48.132;-1.210;2023-05-10T08:06:37;15.90;;;2.83;;
17790;SDS011;9019;48.132;-1.210;2023-05-10T08:09:06;13.03;;;3.33;;
17790;SDS011;9019;48.132;-1.210;2023-05-10T08:11:33;12.10;;;2.93;;
17790;SDS011;9019;48.132;-1.210;2023-05-10T08:14:00;11.43;;;2.70;;
17790;SDS011;9019;48.132;-1.210;2023-05-10T08:16:28;12.13;;;2.90;;
17790;SDS011;9019;48.132;-1.210;2023-05-10T08:18:55;13.40;;;2.67;;
17790;SDS011;9019;48.132;-1.210;2023-05-10T08:21:22;10.07;;;2.50;;
17790;SDS011;9019;48.132;-1.210;2023-05-10T08:23:49;15.93;;;3.40;;
17790;SDS011;9019;48.132;-1.210;2023-05-10T08:26:19;11.27;;;2.90;;
17790;SDS011;9019;48.132;-1.210;2023-05-10T08:28:47;11.67;;;2.73;;
17790;SDS011;9019;48.132;-1.210;2023-05-10T08:31:14;12.67;;;3.30;;
17790;SDS011;9019;48.132;-1.210;2023-05-10T08:33:43;10.20;;;3.07;;
17790;SDS011;9019;48.132;-1.210;2023-05-10T08:36:10;13.00;;;2.30;;
17790;SDS011;9019;48.132;-1.210;2023-05-10T08:38:44;10.85;;;2.90;;
17790;SDS011;9019;48.132;-1.210;2023-05-10T08:41:11;10.40;;;2.65;;
17790;SDS011;9019;48.132;-1.210;2023-05-10T08:43:40;10.23;;;2.53;;
17790;SDS011;9019;48.132;-1.210;2023-05-10T08:46:11;10.23;;;2.30;;
17790;SDS011;9019;48.132;-1.210;2023-05-10T08:48:43;8.85;;;2.15;;
17790;SDS011;9019;48.132;-1.210;2023-05-10T08:51:11;11.67;;;3.10;;
17790;SDS011;9019;48.132;-1.210;2023-05-10T08:53:39;10.30;;;2.20;;
17790;SDS011;9019;48.132;-1.210;2023-05-10T08:56:07;7.68;;;2.03;;
17790;SDS011;9019;48.132;-1.210;2023-05-10T08:58:34;7.22;;;2.40;;
17790;SDS011;9019;48.132;-1.210;2023-05-10T09:01:03;8.03;;;1.93;;
17790;SDS011;9019;48.132;-1.210;2023-05-10T09:03:31;9.75;;;2.47;;
17790;SDS011;9019;48.132;-1.210;2023-05-10T09:05:59;7.47;;;2.10;;
17790;SDS011;9019;48.132;-1.210;2023-05-10T09:08:26;8.48;;;1.88;;
17790;SDS011;9019;48.132;-1.210;2023-05-10T09:10:55;6.35;;;1.67;;
17790;SDS011;9019;48.132;-1.210;2023-05-10T09:13:23;3.55;;;1.45;;
17790;SDS011;9019;48.132;-1.210;2023-05-10T09:15:51;8.85;;;2.10;;
17790;SDS011;9019;48.132;-1.210;2023-05-10T09:18:20;7.75;;;2.00;;
17790;SDS011;9019;48.132;-1.210;2023-05-10T09:20:48;5.43;;;1.70;;
17790;SDS011;9019;48.132;-1.210;2023-05-10T09:23:15;8.43;;;2.13;;
17790;SDS011;9019;48.132;-1.210;2023-05-10T09:25:43;5.25;;;1.80;;
17790;SDS011;9019;48.132;-1.210;2023-05-10T09:28:11;5.15;;;1.67;;
17790;SDS011;9019;48.132;-1.210;2023-05-10T09:30:38;8.27;;;2.10;;
17790;SDS011;9019;48.132;-1.210;2023-05-10T09:33:07;6.00;;;1.80;;
17790;SDS011;9019;48.132;-1.210;2023-05-10T09:35:36;8.85;;;2.20;;
17790;SDS011;9019;48.132;-1.210;2023-05-10T09:38:05;5.97;;;2.15;;
17790;SDS011;9019;48.132;-1.210;2023-05-10T09:40:32;8.40;;;1.95;;
17790;SDS011;9019;48.132;-1.210;2023-05-10T09:43:01;6.65;;;1.92;;
17790;SDS011;9019;48.132;-1.210;2023-05-10T09:45:29;6.28;;;2.03;;
17790;SDS011;9019;48.132;-1.210;2023-05-10T09:47:57;6.20;;;1.90;;
17790;SDS011;9019;48.132;-1.210;2023-05-10T09:50:25;8.15;;;2.25;;
17790;SDS011;9019;48.132;-1.210;2023-05-10T09:52:55;4.95;;;2.13;;
17790;SDS011;9019;48.132;-1.210;2023-05-10T09:55:24;7.53;;;1.90;;
17790;SDS011;9019;48.132;-1.210;2023-05-10T09:57:58;7.90;;;2.30;;
17790;SDS011;9019;48.132;-1.210;2023-05-10T10:00:26;7.00;;;2.30;;
17790;SDS011;9019;48.132;-1.210;2023-05-10T10:02:54;6.15;;;2.20;;
17790;SDS011;9019;48.132;-1.210;2023-05-10T10:05:27;6.63;;;2.17;;
17790;SDS011;9019;48.132;-1.210;2023-05-10T10:07:56;10.02;;;2.60;;
17790;SDS011;9019;48.132;-1.210;2023-05-10T10:10:24;7.88;;;2.60;;
17790;SDS011;9019;48.132;-1.210;2023-05-10T10:12:52;6.28;;;2.03;;
17790;SDS011;9019;48.132;-1.210;2023-05-10T10:15:19;10.48;;;2.40;;
17790;SDS011;9019;48.132;-1.210;2023-05-10T10:17:47;5.75;;;2.45;;
17790;SDS011;9019;48.132;-1.210;2023-05-10T10:20:15;7.45;;;2.13;;
17790;SDS011;9019;48.132;-1.210;2023-05-10T10:22:42;6.93;;;2.10;;
17790;SDS011;9019;48.132;-1.210;2023-05-10T10:25:12;7.25;;;2.47;;
17790;SDS011;9019;48.132;-1.210;2023-05-10T10:27:43;9.30;;;2.25;;
17790;SDS011;9019;48.132;-1.210;2023-05-10T10:30:15;8.50;;;2.35;;
17790;SDS011;9019;48.132;-1.210;2023-05-10T10:32:49;12.85;;;2.88;;
17790;SDS011;9019;48.132;-1.210;2023-05-10T10:35:21;9.32;;;2.97;;
17790;SDS011;9019;48.132;-1.210;2023-05-10T10:37:50;10.88;;;2.35;;
17790;SDS011;9019;48.132;-1.210;2023-05-10T10:40:25;6.55;;;2.47;;
17790;SDS011;9019;48.132;-1.210;2023-05-10T10:42:53;8.00;;;2.67;;
17790;SDS011;9019;48.132;-1.210;2023-05-10T10:45:21;6.85;;;2.53;;
17790;SDS011;9019;48.132;-1.210;2023-05-10T10:47:49;8.48;;;2.88;;
17790;SDS011;9019;48.132;-1.210;2023-05-10T10:50:20;12.07;;;2.97;;
17790;SDS011;9019;48.132;-1.210;2023-05-10T10:52:49;9.38;;;2.83;;
17790;SDS011;9019;48.132;-1.210;2023-05-10T10:55:18;7.07;;;2.70;;
17790;SDS011;9019;48.132;-1.210;2023-05-10T10:57:49;9.40;;;2.80;;
17790;SDS011;9019;48.132;-1.210;2023-05-10T11:00:24;6.85;;;2.58;;
17790;SDS011;9019;48.132;-1.210;2023-05-10T11:02:52;10.93;;;3.10;;
17790;SDS011;9019;48.132;-1.210;2023-05-10T11:05:24;9.20;;;2.97;;
17790;SDS011;9019;48.132;-1.210;2023-05-10T11:07:52;9.07;;;2.80;;
17790;SDS011;9019;48.132;-1.210;2023-05-10T11:10:20;7.23;;;2.73;;
17790;SDS011;9019;48.132;-1.210;2023-05-10T11:12:54;8.07;;;2.57;;
17790;SDS011;9019;48.132;-1.210;2023-05-10T11:15:29;12.57;;;9.07;;
17790;SDS011;9019;48.132;-1.210;2023-05-10T11:17:58;8.40;;;2.63;;
17790;SDS011;9019;48.132;-1.210;2023-05-10T11:20:28;6.88;;;2.50;;
17790;SDS011;9019;48.132;-1.210;2023-05-10T11:23:00;22.85;;;13.05;;
17790;SDS011;9019;48.132;-1.210;2023-05-10T11:25:40;16.45;;;7.88;;
17790;SDS011;9019;48.132;-1.210;2023-05-10T11:28:10;8.18;;;3.33;;
17790;SDS011;9019;48.132;-1.210;2023-05-10T11:30:37;7.50;;;2.60;;
17790;SDS011;9019;48.132;-1.210;2023-05-10T11:33:05;8.55;;;3.75;;
17790;SDS011;9019;48.132;-1.210;2023-05-10T11:35:36;5.18;;;2.92;;
17790;SDS011;9019;48.132;-1.210;2023-05-10T11:38:05;14.82;;;3.88;;
17790;SDS011;9019;48.132;-1.210;2023-05-10T11:40:33;5.75;;;2.55;;
17790;SDS011;9019;48.132;-1.210;2023-05-10T11:43:01;13.63;;;8.40;;
17790;SDS011;9019;48.132;-1.210;2023-05-10T11:48:21;6.05;;;2.40;;
17790;SDS011;9019;48.132;-1.210;2023-05-10T11:50:49;5.93;;;2.00;;
17790;SDS011;9019;48.132;-1.210;2023-05-10T11:53:16;7.75;;;1.80;;
17790;SDS011;9019;48.132;-1.210;2023-05-10T11:55:43;5.47;;;1.55;;
17790;SDS011;9019;48.132;-1.210;2023-05-10T11:58:11;4.53;;;1.80;;
17790;SDS011;9019;48.132;-1.210;2023-05-10T12:00:38;3.67;;;1.48;;
17790;SDS011;9019;48.132;-1.210;2023-05-10T12:03:06;5.00;;;1.75;;
17790;SDS011;9019;48.132;-1.210;2023-05-10T12:05:36;5.32;;;1.80;;
17790;SDS011;9019;48.132;-1.210;2023-05-10T12:08:13;4.55;;;1.80;;
17790;SDS011;9019;48.132;-1.210;2023-05-10T12:10:41;6.40;;;2.45;;
17790;SDS011;9019;48.132;-1.210;2023-05-10T12:13:11;5.65;;;2.13;;
17790;SDS011;9019;48.132;-1.210;2023-05-10T12:15:40;3.90;;;2.03;;
17790;SDS011;9019;48.132;-1.210;2023-05-10T12:18:08;6.30;;;2.05;;
17790;SDS011;9019;48.132;-1.210;2023-05-10T12:20:38;5.07;;;1.75;;
17790;SDS011;9019;48.132;-1.210;2023-05-10T12:23:07;3.78;;;1.23;;
17790;SDS011;9019;48.132;-1.210;2023-05-10T12:25:36;1.98;;;1.00;;
17790;SDS011;9019;48.132;-1.210;2023-05-10T12:28:04;2.78;;;1.00;;
17790;SDS011;9019;48.132;-1.210;2023-05-10T12:30:32;4.07;;;1.20;;
17790;SDS011;9019;48.132;-1.210;2023-05-10T12:33:00;3.40;;;1.20;;
17790;SDS011;9019;48.132;-1.210;2023-05-10T12:35:29;3.35;;;1.38;;
17790;SDS011;9019;48.132;-1.210;2023-05-10T12:37:59;3.95;;;1.25;;
17790;SDS011;9019;48.132;-1.210;2023-05-10T12:40:26;2.92;;;0.85;;
17790;SDS011;9019;48.132;-1.210;2023-05-10T12:42:54;1.98;;;0.80;;
17790;SDS011;9019;48.132;-1.210;2023-05-10T12:45:22;3.95;;;0.90;;
17790;SDS011;9019;48.132;-1.210;2023-05-10T12:47:49;2.20;;;0.90;;
17790;SDS011;9019;48.132;-1.210;2023-05-10T12:50:17;3.67;;;0.73;;
17790;SDS011;9019;48.132;-1.210;2023-05-10T12:52:44;4.97;;;1.10;;
17790;SDS011;9019;48.132;-1.210;2023-05-10T12:55:13;2.75;;;0.90;;
17790;SDS011;9019;48.132;-1.210;2023-05-10T12:57:40;2.40;;;0.90;;
17790;SDS011;9019;48.132;-1.210;2023-05-10T13:00:08;4.80;;;1.40;;
17790;SDS011;9019;48.132;-1.210;2023-05-10T13:02:36;3.08;;;1.10;;
17790;SDS011;9019;48.132;-1.210;2023-05-10T13:05:03;4.00;;;1.10;;
17790;SDS011;9019;48.132;-1.210;2023-05-10T13:07:31;4.13;;;1.42;;
17790;SDS011;9019;48.132;-1.210;2023-05-10T13:09:58;9.05;;;1.58;;
17790;SDS011;9019;48.132;-1.210;2023-05-10T13:12:27;3.08;;;1.10;;
17790;SDS011;9019;48.132;-1.210;2023-05-10T13:14:54;5.43;;;3.05;;
17790;SDS011;9019;48.132;-1.210;2023-05-10T13:17:22;4.20;;;1.40;;
17790;SDS011;9019;48.132;-1.210;2023-05-10T13:19:50;5.93;;;1.50;;
17790;SDS011;9019;48.132;-1.210;2023-05-10T13:22:17;4.70;;;1.60;;
17790;SDS011;9019;48.132;-1.210;2023-05-10T13:24:44;3.70;;;1.00;;
17790;SDS011;9019;48.132;-1.210;2023-05-10T13:27:12;3.50;;;1.40;;
17790;SDS011;9019;48.132;-1.210;2023-05-10T13:29:41;6.05;;;1.90;;
17790;SDS011;9019;48.132;-1.210;2023-05-10T13:32:09;6.78;;;1.60;;
17790;SDS011;9019;48.132;-1.210;2023-05-10T13:34:36;5.25;;;1.50;;
17790;SDS011;9019;48.132;-1.210;2023-05-10T13:37:07;4.75;;;1.48;;
17790;SDS011;9019;48.132;-1.210;2023-05-10T13:39:39;5.53;;;1.60;;
17790;SDS011;9019;48.132;-1.210;2023-05-10T13:42:06;6.28;;;1.75;;
17790;SDS011;9019;48.132;-1.210;2023-05-10T13:44:34;6.80;;;1.50;;
17790;SDS011;9019;48.132;-1.210;2023-05-10T13:47:07;2.80;;;1.30;;
17790;SDS011;9019;48.132;-1.210;2023-05-10T13:49:41;4.47;;;1.15;;
17790;SDS011;9019;48.132;-1.210;2023-05-10T13:52:26;2.75;;;1.08;;
17790;SDS011;9019;48.132;-1.210;2023-05-10T13:54:54;5.35;;;1.38;;
17790;SDS011;9019;48.132;-1.210;2023-05-10T13:57:22;3.50;;;1.30;;
17790;SDS011;9019;48.132;-1.210;2023-05-10T13:59:49;5.15;;;1.60;;
17790;SDS011;9019;48.132;-1.210;2023-05-10T14:02:18;8.02;;;1.88;;
17790;SDS011;9019;48.132;-1.210;2023-05-10T14:04:46;6.78;;;2.05;;
17790;SDS011;9019;48.132;-1.210;2023-05-10T14:07:14;5.95;;;1.50;;
17790;SDS011;9019;48.132;-1.210;2023-05-10T14:09:43;4.38;;;1.33;;
17790;SDS011;9019;48.132;-1.210;2023-05-10T14:12:25;4.13;;;1.40;;
17790;SDS011;9019;48.132;-1.210;2023-05-10T14:14:52;5.80;;;1.67;;
17790;SDS011;9019;48.132;-1.210;2023-05-10T14:17:21;6.72;;;1.20;;
17790;SDS011;9019;48.132;-1.210;2023-05-10T14:19:49;3.85;;;1.75;;
17790;SDS011;9019;48.132;-1.210;2023-05-10T14:22:16;4.32;;;1.33;;
17790;SDS011;9019;48.132;-1.210;2023-05-10T14:24:44;4.82;;;1.38;;
17790;SDS011;9019;48.132;-1.210;2023-05-10T14:27:12;3.08;;;0.80;;
17790;SDS011;9019;48.132;-1.210;2023-05-10T14:29:40;3.83;;;0.80;;
17790;SDS011;9019;48.132;-1.210;2023-05-10T14:32:07;2.58;;;1.00;;
17790;SDS011;9019;48.132;-1.210;2023-05-10T14:34:37;4.65;;;1.42;;
17790;SDS011;9019;48.132;-1.210;2023-05-10T14:37:04;5.00;;;1.40;;
17790;SDS011;9019;48.132;-1.210;2023-05-10T14:39:45;5.70;;;1.50;;
17790;SDS011;9019;48.132;-1.210;2023-05-10T14:42:13;4.40;;;1.05;;
17790;SDS011;9019;48.132;-1.210;2023-05-10T14:44:40;2.57;;;1.17;;
17790;SDS011;9019;48.132;-1.210;2023-05-10T14:47:08;3.87;;;1.10;;
17790;SDS011;9019;48.132;-1.210;2023-05-10T14:49:36;5.13;;;1.40;;
17790;SDS011;9019;48.132;-1.210;2023-05-10T14:52:04;4.63;;;1.80;;
17790;SDS011;9019;48.132;-1.210;2023-05-10T14:54:31;5.50;;;1.80;;